sensor_id;sensor_type;location;lat;lon;timestamp;temperature;humidity
2973;DHT22;1496;51.404;7.232;2023-05-10T00:01:35;13.00;99.90
2973;DHT22;1496;51.404;7.232;2023-05-10T00:04:02;12.90;99.90
2973;DHT22;1496;51.404;7.232;2023-05-10T00:06:29;13.00;99.90
2973;DHT22;1496;51.404;7.232;2023-05-10T00:08:56;12.90;99.90
2973;DHT22;1496;51.404;7.232;2023-05-10T00:11:23;13.00;99.90
2973;DHT22;1496;51.404;7.232;2023-05-10T00:13:50;13.00;99.90
2973;DHT22;1496;51.404;7.232;2023-05-10T00:16:17;12.90;99.90
2973;DHT22;1496;51.404;7.232;2023-05-10T00:18:46;12.90;99.90
2973;DHT22;1496;51.404;7.232;2023-05-10T00:21:12;13.00;99.90
2973;DHT22;1496;51.404;7.232;2023-05-10T00:23:39;12.90;99.90
2973;DHT22;1496;51.404;7.232;2023-05-10T00:26:10;12.90;99.90
2973;DHT22;1496;51.404;7.232;2023-05-10T00:28:38;12.80;99.90
2973;DHT22;1496;51.404;7.232;2023-05-10T00:31:05;12.80;99.90
2973;DHT22;1496;51.404;7.232;2023-05-10T00:33:32;12.80;99.90
2973;DHT22;1496;51.404;7.232;2023-05-10T00:36:00;12.80;99.90
2973;DHT22;1496;51.404;7.232;2023-05-10T00:38:26;12.80;99.90
2973;DHT22;1496;51.404;7.232;2023-05-10T00:40:54;12.80;99.90
2973;DHT22;1496;51.404;7.232;2023-05-10T00:43:27;12.80;99.90
2973;DHT22;1496;51.404;7.232;2023-05-10T00:45:54;12.80;99.90
2973;DHT22;1496;51.404;7.232;2023-05-10T00:48:24;12.80;99.90
2973;DHT22;1496;51.404;7.232;2023-05-10T00:50:50;12.80;99.90
2973;DHT22;1496;51.404;7.232;2023-05-10T00:53:19;12.90;99.90
2973;DHT22;1496;51.404;7.232;2023-05-10T00:55:45;12.90;99.90
2973;DHT22;1496;51.404;7.232;2023-05-10T00:58:13;12.90;99.90
2973;DHT22;1496;51.404;7.232;2023-05-10T01:00:42;12.90;99.90
2973;DHT22;1496;51.404;7.232;2023-05-10T01:03:13;12.90;99.90
2973;DHT22;1496;51.404;7.232;2023-05-10T01:05:42;12.90;99.90
2973;DHT22;1496;51.404;7.232;2023-05-10T01:08:28;12.90;99.90
2973;DHT22;1496;51.404;7.232;2023-05-10T01:10:55;12.90;99.90
2973;DHT22;1496;51.404;7.232;2023-05-10T01:13:52;12.90;99.90
2973;DHT22;1496;51.404;7.232;2023-05-10T01:16:18;12.90;99.90
2973;DHT22;1496;51.404;7.232;2023-05-10T01:18:48;13.00;99.90
2973;DHT22;1496;51.404;7.232;2023-05-10T01:21:48;12.90;99.90
2973;DHT22;1496;51.404;7.232;2023-05-10T01:33:30;12.90;99.90
2973;DHT22;1496;51.404;7.232;2023-05-10T01:36:13;12.90;99.90
2973;DHT22;1496;51.404;7.232;2023-05-10T01:41:17;13.00;99.90
2973;DHT22;1496;51.404;7.232;2023-05-10T01:44:16;12.90;99.90
2973;DHT22;1496;51.404;7.232;2023-05-10T01:46:48;12.80;99.90
2973;DHT22;1496;51.404;7.232;2023-05-10T01:49:25;12.70;99.90
2973;DHT22;1496;51.404;7.232;2023-05-10T01:52:00;12.70;99.90
2973;DHT22;1496;51.404;7.232;2023-05-10T01:54:29;12.70;99.90
2973;DHT22;1496;51.404;7.232;2023-05-10T01:57:01;12.60;99.90
2973;DHT22;1496;51.404;7.232;2023-05-10T01:59:33;12.60;99.90
2973;DHT22;1496;51.404;7.232;2023-05-10T02:02:07;12.60;99.90
2973;DHT22;1496;51.404;7.232;2023-05-10T02:04:39;12.60;99.90
2973;DHT22;1496;51.404;7.232;2023-05-10T02:07:08;12.60;99.90
2973;DHT22;1496;51.404;7.232;2023-05-10T02:09:36;12.60;99.90
2973;DHT22;1496;51.404;7.232;2023-05-10T02:12:05;12.50;99.90
2973;DHT22;1496;51.404;7.232;2023-05-10T02:14:36;12.60;99.90
2973;DHT22;1496;51.404;7.232;2023-05-10T02:17:05;12.60;99.90
2973;DHT22;1496;51.404;7.232;2023-05-10T02:19:32;12.60;99.90
2973;DHT22;1496;51.404;7.232;2023-05-10T02:22:01;12.60;99.90
2973;DHT22;1496;51.404;7.232;2023-05-10T02:24:29;12.60;99.90
2973;DHT22;1496;51.404;7.232;2023-05-10T02:26:57;12.60;99.90
2973;DHT22;1496;51.404;7.232;2023-05-10T02:29:26;12.60;99.90
2973;DHT22;1496;51.404;7.232;2023-05-10T02:31:55;12.60;99.90
2973;DHT22;1496;51.404;7.232;2023-05-10T02:34:26;12.70;99.90
2973;DHT22;1496;51.404;7.232;2023-05-10T02:36:54;12.60;99.90
2973;DHT22;1496;51.404;7.232;2023-05-10T02:39:23;12.50;99.90
2973;DHT22;1496;51.404;7.232;2023-05-10T02:41:52;12.60;99.90
2973;DHT22;1496;51.404;7.232;2023-05-10T02:44:20;12.60;99.90
2973;DHT22;1496;51.404;7.232;2023-05-10T02:46:49;12.60;99.90
2973;DHT22;1496;51.404;7.232;2023-05-10T02:49:15;12.50;99.90
2973;DHT22;1496;51.404;7.232;2023-05-10T02:51:50;12.50;99.90
2973;DHT22;1496;51.404;7.232;2023-05-10T02:54:24;12.50;99.90
2973;DHT22;1496;51.404;7.232;2023-05-10T02:56:58;12.60;99.90
2973;DHT22;1496;51.404;7.232;2023-05-10T02:59:27;12.50;99.90
2973;DHT22;1496;51.404;7.232;2023-05-10T03:01:54;12.50;99.90
2973;DHT22;1496;51.404;7.232;2023-05-10T03:04:22;12.40;99.90
2973;DHT22;1496;51.404;7.232;2023-05-10T03:06:49;12.40;99.90
2973;DHT22;1496;51.404;7.232;2023-05-10T03:09:16;12.40;99.90
2973;DHT22;1496;51.404;7.232;2023-05-10T03:20:47;12.40;99.90
2973;DHT22;1496;51.404;7.232;2023-05-10T03:25:46;12.50;99.90
2973;DHT22;1496;51.404;7.232;2023-05-10T03:28:16;12.50;99.90
2973;DHT22;1496;51.404;7.232;2023-05-10T03:30:43;12.40;99.90
2973;DHT22;1496;51.404;7.232;2023-05-10T03:33:12;12.50;99.90
2973;DHT22;1496;51.404;7.232;2023-05-10T03:35:42;12.50;99.90
2973;DHT22;1496;51.404;7.232;2023-05-10T03:38:15;12.50;99.90
2973;DHT22;1496;51.404;7.232;2023-05-10T03:40:41;12.50;99.90
2973;DHT22;1496;51.404;7.232;2023-05-10T03:43:08;12.50;99.90
2973;DHT22;1496;51.404;7.232;2023-05-10T03:45:35;12.50;99.90
2973;DHT22;1496;51.404;7.232;2023-05-10T03:48:03;12.40;99.90
2973;DHT22;1496;51.404;7.232;2023-05-10T03:50:30;12.40;99.90
2973;DHT22;1496;51.404;7.232;2023-05-10T03:52:57;12.40;99.90
2973;DHT22;1496;51.404;7.232;2023-05-10T03:55:23;12.40;99.90
2973;DHT22;1496;51.404;7.232;2023-05-10T03:57:51;12.40;99.90
2973;DHT22;1496;51.404;7.232;2023-05-10T04:00:21;12.40;99.90
2973;DHT22;1496;51.404;7.232;2023-05-10T04:02:52;12.40;99.90
2973;DHT22;1496;51.404;7.232;2023-05-10T04:05:20;12.40;99.90
2973;DHT22;1496;51.404;7.232;2023-05-10T04:07:47;12.50;99.90
2973;DHT22;1496;51.404;7.232;2023-05-10T04:10:16;12.40;99.90
2973;DHT22;1496;51.404;7.232;2023-05-10T04:12:43;12.40;99.90
2973;DHT22;1496;51.404;7.232;2023-05-10T04:15:12;12.40;99.90
2973;DHT22;1496;51.404;7.232;2023-05-10T04:17:40;12.40;99.90
2973;DHT22;1496;51.404;7.232;2023-05-10T04:20:07;12.40;99.90
2973;DHT22;1496;51.404;7.232;2023-05-10T04:22:35;12.40;99.90
2973;DHT22;1496;51.404;7.232;2023-05-10T04:25:08;12.40;99.90
2973;DHT22;1496;51.404;7.232;2023-05-10T04:27:35;12.30;99.90
2973;DHT22;1496;51.404;7.232;2023-05-10T04:30:05;12.30;99.90
2973;DHT22;1496;51.404;7.232;2023-05-10T04:32:36;12.40;99.90
2973;DHT22;1496;51.404;7.232;2023-05-10T04:35:05;12.30;99.90
2973;DHT22;1496;51.404;7.232;2023-05-10T04:37:33;12.40;99.90
2973;DHT22;1496;51.404;7.232;2023-05-10T04:39:59;12.40;99.90
2973;DHT22;1496;51.404;7.232;2023-05-10T04:42:28;12.40;99.90
2973;DHT22;1496;51.404;7.232;2023-05-10T04:44:54;12.40;99.90
2973;DHT22;1496;51.404;7.232;2023-05-10T04:47:22;12.40;99.90
2973;DHT22;1496;51.404;7.232;2023-05-10T04:49:48;12.50;99.90
2973;DHT22;1496;51.404;7.232;2023-05-10T04:52:14;12.40;99.90
2973;DHT22;1496;51.404;7.232;2023-05-10T04:54:44;12.40;99.90
2973;DHT22;1496;51.404;7.232;2023-05-10T04:57:12;12.40;99.90
2973;DHT22;1496;51.404;7.232;2023-05-10T04:59:41;12.40;99.90
2973;DHT22;1496;51.404;7.232;2023-05-10T05:02:09;12.40;99.90
2973;DHT22;1496;51.404;7.232;2023-05-10T05:04:36;12.50;99.90
2973;DHT22;1496;51.404;7.232;2023-05-10T05:07:02;12.50;99.90
2973;DHT22;1496;51.404;7.232;2023-05-10T05:09:30;12.50;99.90
2973;DHT22;1496;51.404;7.232;2023-05-10T05:11:58;12.50;99.90
2973;DHT22;1496;51.404;7.232;2023-05-10T05:14:25;12.50;99.90
2973;DHT22;1496;51.404;7.232;2023-05-10T05:16:53;12.50;99.90
2973;DHT22;1496;51.404;7.232;2023-05-10T05:19:19;12.50;99.90
2973;DHT22;1496;51.404;7.232;2023-05-10T05:21:47;12.50;99.90
2973;DHT22;1496;51.404;7.232;2023-05-10T05:24:14;12.60;99.90
2973;DHT22;1496;51.404;7.232;2023-05-10T05:26:41;12.60;99.90
2973;DHT22;1496;51.404;7.232;2023-05-10T05:29:09;12.60;99.90
2973;DHT22;1496;51.404;7.232;2023-05-10T05:31:36;12.60;99.90
2973;DHT22;1496;51.404;7.232;2023-05-10T05:34:03;12.60;99.90
2973;DHT22;1496;51.404;7.232;2023-05-10T05:36:29;12.70;99.90
2973;DHT22;1496;51.404;7.232;2023-05-10T05:38:57;12.70;99.90
2973;DHT22;1496;51.404;7.232;2023-05-10T05:41:24;12.70;99.90
2973;DHT22;1496;51.404;7.232;2023-05-10T05:43:51;12.70;99.90
2973;DHT22;1496;51.404;7.232;2023-05-10T05:46:20;12.70;99.90
2973;DHT22;1496;51.404;7.232;2023-05-10T05:48:47;12.70;99.90
2973;DHT22;1496;51.404;7.232;2023-05-10T05:51:14;12.70;99.90
2973;DHT22;1496;51.404;7.232;2023-05-10T05:53:40;12.70;99.90
2973;DHT22;1496;51.404;7.232;2023-05-10T05:56:08;12.70;99.90
2973;DHT22;1496;51.404;7.232;2023-05-10T05:58:35;12.70;99.90
2973;DHT22;1496;51.404;7.232;2023-05-10T06:01:02;12.70;99.90
2973;DHT22;1496;51.404;7.232;2023-05-10T06:03:29;12.80;99.90
2973;DHT22;1496;51.404;7.232;2023-05-10T06:05:57;12.90;99.90
2973;DHT22;1496;51.404;7.232;2023-05-10T06:08:24;12.90;99.90
2973;DHT22;1496;51.404;7.232;2023-05-10T06:10:52;12.90;99.90
2973;DHT22;1496;51.404;7.232;2023-05-10T06:13:18;12.90;99.90
2973;DHT22;1496;51.404;7.232;2023-05-10T06:15:47;13.00;99.90
2973;DHT22;1496;51.404;7.232;2023-05-10T06:18:13;12.90;99.90
2973;DHT22;1496;51.404;7.232;2023-05-10T06:20:41;12.80;99.90
2973;DHT22;1496;51.404;7.232;2023-05-10T06:23:09;12.90;99.90
2973;DHT22;1496;51.404;7.232;2023-05-10T06:25:35;12.90;99.90
2973;DHT22;1496;51.404;7.232;2023-05-10T06:28:02;12.90;99.90
2973;DHT22;1496;51.404;7.232;2023-05-10T06:30:29;12.90;99.90
2973;DHT22;1496;51.404;7.232;2023-05-10T06:32:55;12.90;99.90
2973;DHT22;1496;51.404;7.232;2023-05-10T06:35:23;12.90;99.90
2973;DHT22;1496;51.404;7.232;2023-05-10T06:37:50;12.90;99.90
2973;DHT22;1496;51.404;7.232;2023-05-10T06:40:18;13.00;99.90
2973;DHT22;1496;51.404;7.232;2023-05-10T06:42:46;13.10;99.90
2973;DHT22;1496;51.404;7.232;2023-05-10T06:45:13;13.10;99.90
2973;DHT22;1496;51.404;7.232;2023-05-10T06:47:40;13.10;99.90
2973;DHT22;1496;51.404;7.232;2023-05-10T06:50:09;13.10;99.90
2973;DHT22;1496;51.404;7.232;2023-05-10T06:52:37;13.10;99.90
2973;DHT22;1496;51.404;7.232;2023-05-10T06:55:05;13.20;99.90
2973;DHT22;1496;51.404;7.232;2023-05-10T06:57:31;13.20;99.90
2973;DHT22;1496;51.404;7.232;2023-05-10T07:00:01;13.20;99.90
2973;DHT22;1496;51.404;7.232;2023-05-10T07:02:29;13.20;99.90
2973;DHT22;1496;51.404;7.232;2023-05-10T07:04:57;13.30;99.90
2973;DHT22;1496;51.404;7.232;2023-05-10T07:07:24;13.30;99.90
2973;DHT22;1496;51.404;7.232;2023-05-10T07:09:52;13.30;99.90
2973;DHT22;1496;51.404;7.232;2023-05-10T07:12:19;13.30;99.90
2973;DHT22;1496;51.404;7.232;2023-05-10T07:14:45;13.40;99.90
2973;DHT22;1496;51.404;7.232;2023-05-10T07:17:13;13.40;99.90
2973;DHT22;1496;51.404;7.232;2023-05-10T07:19:42;13.50;99.90
2973;DHT22;1496;51.404;7.232;2023-05-10T07:22:09;13.40;99.90
2973;DHT22;1496;51.404;7.232;2023-05-10T07:24:36;13.50;99.90
2973;DHT22;1496;51.404;7.232;2023-05-10T07:27:03;13.50;99.90
2973;DHT22;1496;51.404;7.232;2023-05-10T07:29:32;13.60;99.90
2973;DHT22;1496;51.404;7.232;2023-05-10T07:32:00;13.60;99.90
2973;DHT22;1496;51.404;7.232;2023-05-10T07:34:27;13.50;99.90
2973;DHT22;1496;51.404;7.232;2023-05-10T07:36:57;13.60;99.90
2973;DHT22;1496;51.404;7.232;2023-05-10T07:39:50;13.70;99.90
2973;DHT22;1496;51.404;7.232;2023-05-10T07:42:19;13.70;99.90
2973;DHT22;1496;51.404;7.232;2023-05-10T07:44:45;13.60;99.90
2973;DHT22;1496;51.404;7.232;2023-05-10T07:47:13;13.70;99.90
2973;DHT22;1496;51.404;7.232;2023-05-10T07:49:40;13.80;99.90
2973;DHT22;1496;51.404;7.232;2023-05-10T07:52:06;13.70;99.90
2973;DHT22;1496;51.404;7.232;2023-05-10T07:54:33;13.60;99.90
2973;DHT22;1496;51.404;7.232;2023-05-10T07:57:00;13.60;99.90
2973;DHT22;1496;51.404;7.232;2023-05-10T07:59:27;13.50;99.90
2973;DHT22;1496;51.404;7.232;2023-05-10T08:01:54;13.60;99.90
2973;DHT22;1496;51.404;7.232;2023-05-10T08:04:22;13.60;99.90
2973;DHT22;1496;51.404;7.232;2023-05-10T08:06:49;13.70;99.90
2973;DHT22;1496;51.404;7.232;2023-05-10T08:09:17;13.80;99.90
2973;DHT22;1496;51.404;7.232;2023-05-10T08:11:50;13.70;99.90
2973;DHT22;1496;51.404;7.232;2023-05-10T08:14:17;13.50;99.90
2973;DHT22;1496;51.404;7.232;2023-05-10T08:16:45;13.60;99.90
2973;DHT22;1496;51.404;7.232;2023-05-10T08:19:12;13.50;99.90
2973;DHT22;1496;51.404;7.232;2023-05-10T08:21:39;13.50;99.90
2973;DHT22;1496;51.404;7.232;2023-05-10T08:24:06;13.40;99.90
2973;DHT22;1496;51.404;7.232;2023-05-10T08:26:33;13.50;99.90
2973;DHT22;1496;51.404;7.232;2023-05-10T08:29:00;13.60;99.90
2973;DHT22;1496;51.404;7.232;2023-05-10T08:31:28;13.60;99.90
2973;DHT22;1496;51.404;7.232;2023-05-10T08:33:54;13.60;99.90
2973;DHT22;1496;51.404;7.232;2023-05-10T08:36:21;13.80;99.90
2973;DHT22;1496;51.404;7.232;2023-05-10T08:38:53;13.80;99.90
2973;DHT22;1496;51.404;7.232;2023-05-10T08:41:23;14.00;99.90
2973;DHT22;1496;51.404;7.232;2023-05-10T08:43:52;14.00;99.90
2973;DHT22;1496;51.404;7.232;2023-05-10T08:46:21;14.10;99.90
2973;DHT22;1496;51.404;7.232;2023-05-10T08:48:49;14.20;99.90
2973;DHT22;1496;51.404;7.232;2023-05-10T08:51:23;14.10;99.90
2973;DHT22;1496;51.404;7.232;2023-05-10T08:53:53;14.20;99.90
2973;DHT22;1496;51.404;7.232;2023-05-10T08:56:20;14.10;99.90
2973;DHT22;1496;51.404;7.232;2023-05-10T08:58:47;14.10;99.90
2973;DHT22;1496;51.404;7.232;2023-05-10T09:01:18;14.00;99.90
2973;DHT22;1496;51.404;7.232;2023-05-10T09:03:47;14.20;99.90
2973;DHT22;1496;51.404;7.232;2023-05-10T09:06:14;14.10;99.90
2973;DHT22;1496;51.404;7.232;2023-05-10T09:08:42;14.10;99.90
2973;DHT22;1496;51.404;7.232;2023-05-10T09:11:09;14.30;99.90
2973;DHT22;1496;51.404;7.232;2023-05-10T09:13:36;14.40;99.90
2973;DHT22;1496;51.404;7.232;2023-05-10T09:16:04;14.70;99.90
2973;DHT22;1496;51.404;7.232;2023-05-10T09:18:30;14.60;99.90
2973;DHT22;1496;51.404;7.232;2023-05-10T09:20:57;14.90;99.90
2973;DHT22;1496;51.404;7.232;2023-05-10T09:23:25;14.70;99.90
2973;DHT22;1496;51.404;7.232;2023-05-10T09:26:07;14.70;99.90
2973;DHT22;1496;51.404;7.232;2023-05-10T09:28:56;14.80;99.90
2973;DHT22;1496;51.404;7.232;2023-05-10T09:31:24;14.90;99.90
2973;DHT22;1496;51.404;7.232;2023-05-10T09:34:15;14.80;99.90
2973;DHT22;1496;51.404;7.232;2023-05-10T09:36:56;14.90;99.90
2973;DHT22;1496;51.404;7.232;2023-05-10T09:39:35;15.00;99.90
2973;DHT22;1496;51.404;7.232;2023-05-10T09:42:13;14.90;99.90
2973;DHT22;1496;51.404;7.232;2023-05-10T09:44:45;15.00;99.90
2973;DHT22;1496;51.404;7.232;2023-05-10T09:47:17;15.10;99.90
2973;DHT22;1496;51.404;7.232;2023-05-10T09:49:51;14.90;99.90
2973;DHT22;1496;51.404;7.232;2023-05-10T09:52:20;15.10;99.90
2973;DHT22;1496;51.404;7.232;2023-05-10T09:54:52;15.10;99.90
2973;DHT22;1496;51.404;7.232;2023-05-10T09:57:23;15.10;99.90
2973;DHT22;1496;51.404;7.232;2023-05-10T09:59:52;15.00;99.90
2973;DHT22;1496;51.404;7.232;2023-05-10T10:02:20;15.00;99.90
2973;DHT22;1496;51.404;7.232;2023-05-10T10:04:50;14.70;99.90
2973;DHT22;1496;51.404;7.232;2023-05-10T10:07:23;14.70;99.90
2973;DHT22;1496;51.404;7.232;2023-05-10T10:09:50;14.80;99.90
2973;DHT22;1496;51.404;7.232;2023-05-10T10:12:17;14.70;99.90
2973;DHT22;1496;51.404;7.232;2023-05-10T10:14:48;14.70;99.90
2973;DHT22;1496;51.404;7.232;2023-05-10T10:17:18;14.70;99.90
2973;DHT22;1496;51.404;7.232;2023-05-10T10:19:45;14.60;99.90
2973;DHT22;1496;51.404;7.232;2023-05-10T10:22:12;14.30;99.90
2973;DHT22;1496;51.404;7.232;2023-05-10T10:24:40;14.10;99.90
2973;DHT22;1496;51.404;7.232;2023-05-10T10:35:41;14.20;99.90
2973;DHT22;1496;51.404;7.232;2023-05-10T10:38:12;14.20;99.90
2973;DHT22;1496;51.404;7.232;2023-05-10T10:40:40;14.20;99.90
2973;DHT22;1496;51.404;7.232;2023-05-10T10:43:27;14.40;99.90
2973;DHT22;1496;51.404;7.232;2023-05-10T10:46:16;14.50;99.90
2973;DHT22;1496;51.404;7.232;2023-05-10T10:49:08;14.70;99.90
2973;DHT22;1496;51.404;7.232;2023-05-10T10:51:38;14.80;99.90
2973;DHT22;1496;51.404;7.232;2023-05-10T10:54:10;14.80;99.90
2973;DHT22;1496;51.404;7.232;2023-05-10T10:56:38;14.70;99.90
2973;DHT22;1496;51.404;7.232;2023-05-10T10:59:08;14.70;99.90
2973;DHT22;1496;51.404;7.232;2023-05-10T11:01:34;14.50;99.90
2973;DHT22;1496;51.404;7.232;2023-05-10T11:06:33;14.50;99.90
2973;DHT22;1496;51.404;7.232;2023-05-10T11:09:12;14.70;99.90
2973;DHT22;1496;51.404;7.232;2023-05-10T11:11:56;15.00;99.90
2973;DHT22;1496;51.404;7.232;2023-05-10T11:14:26;15.10;99.90
2973;DHT22;1496;51.404;7.232;2023-05-10T11:16:53;15.00;99.90
2973;DHT22;1496;51.404;7.232;2023-05-10T11:19:20;15.00;99.90
2973;DHT22;1496;51.404;7.232;2023-05-10T11:25:29;14.70;99.90
2973;DHT22;1496;51.404;7.232;2023-05-10T11:27:56;14.60;99.90
2973;DHT22;1496;51.404;7.232;2023-05-10T11:30:33;14.60;99.90
2973;DHT22;1496;51.404;7.232;2023-05-10T11:33:01;14.50;99.90
2973;DHT22;1496;51.404;7.232;2023-05-10T11:35:28;14.40;99.90
2973;DHT22;1496;51.404;7.232;2023-05-10T11:37:57;14.40;99.90
2973;DHT22;1496;51.404;7.232;2023-05-10T11:40:24;14.30;99.90
2973;DHT22;1496;51.404;7.232;2023-05-10T11:42:55;14.40;99.90
2973;DHT22;1496;51.404;7.232;2023-05-10T11:45:24;14.40;99.90
2973;DHT22;1496;51.404;7.232;2023-05-10T11:47:51;14.40;99.90
2973;DHT22;1496;51.404;7.232;2023-05-10T11:50:20;14.30;99.90
2973;DHT22;1496;51.404;7.232;2023-05-10T11:52:51;14.30;99.90
2973;DHT22;1496;51.404;7.232;2023-05-10T11:55:23;14.50;99.90
2973;DHT22;1496;51.404;7.232;2023-05-10T11:57:59;14.60;99.90
2973;DHT22;1496;51.404;7.232;2023-05-10T12:00:28;14.60;99.90
2973;DHT22;1496;51.404;7.232;2023-05-10T12:02:57;14.70;99.90
2973;DHT22;1496;51.404;7.232;2023-05-10T12:05:27;14.70;99.90
2973;DHT22;1496;51.404;7.232;2023-05-10T12:08:14;14.80;99.90
2973;DHT22;1496;51.404;7.232;2023-05-10T12:10:41;14.80;99.90
2973;DHT22;1496;51.404;7.232;2023-05-10T12:13:15;14.80;99.90
2973;DHT22;1496;51.404;7.232;2023-05-10T12:15:46;14.60;89.10
2973;DHT22;1496;51.404;7.232;2023-05-10T12:18:22;14.60;99.90
2973;DHT22;1496;51.404;7.232;2023-05-10T12:21:02;14.60;99.90
2973;DHT22;1496;51.404;7.232;2023-05-10T12:23:30;14.90;99.90
2973;DHT22;1496;51.404;7.232;2023-05-10T12:26:02;15.00;99.90
2973;DHT22;1496;51.404;7.232;2023-05-10T12:28:37;15.10;8.80
2973;DHT22;1496;51.404;7.232;2023-05-10T12:31:06;15.30;4.80
2973;DHT22;1496;51.404;7.232;2023-05-10T12:33:39;15.50;1.00
2973;DHT22;1496;51.404;7.232;2023-05-10T12:36:15;15.80;1.00
2973;DHT22;1496;51.404;7.232;2023-05-10T12:38:45;15.90;99.90
2973;DHT22;1496;51.404;7.232;2023-05-10T12:41:18;15.90;99.90
2973;DHT22;1496;51.404;7.232;2023-05-10T12:43:55;15.70;99.90
2973;DHT22;1496;51.404;7.232;2023-05-10T12:46:37;15.60;99.90
2973;DHT22;1496;51.404;7.232;2023-05-10T12:49:07;15.60;99.90
2973;DHT22;1496;51.404;7.232;2023-05-10T12:51:35;15.40;99.90
2973;DHT22;1496;51.404;7.232;2023-05-10T12:54:02;15.40;99.90
2973;DHT22;1496;51.404;7.232;2023-05-10T12:56:30;15.50;99.90
2973;DHT22;1496;51.404;7.232;2023-05-10T12:59:05;15.70;99.90
2973;DHT22;1496;51.404;7.232;2023-05-10T13:01:51;15.70;99.90
2973;DHT22;1496;51.404;7.232;2023-05-10T13:04:18;15.50;99.90
2973;DHT22;1496;51.404;7.232;2023-05-10T13:06:45;15.50;99.90
2973;DHT22;1496;51.404;7.232;2023-05-10T13:09:11;15.50;99.90
2973;DHT22;1496;51.404;7.232;2023-05-10T13:11:39;15.50;99.90
2973;DHT22;1496;51.404;7.232;2023-05-10T13:14:06;15.40;99.90
2973;DHT22;1496;51.404;7.232;2023-05-10T13:16:40;15.50;99.90
2973;DHT22;1496;51.404;7.232;2023-05-10T13:19:10;15.60;99.90
2973;DHT22;1496;51.404;7.232;2023-05-10T13:21:38;15.90;99.90
2973;DHT22;1496;51.404;7.232;2023-05-10T13:24:07;16.20;99.90
2973;DHT22;1496;51.404;7.232;2023-05-10T13:26:44;16.70;99.90
2973;DHT22;1496;51.404;7.232;2023-05-10T13:29:33;16.80;99.90
2973;DHT22;1496;51.404;7.232;2023-05-10T13:32:02;17.00;99.90
2973;DHT22;1496;51.404;7.232;2023-05-10T13:34:31;17.20;99.90
2973;DHT22;1496;51.404;7.232;2023-05-10T13:37:04;17.20;99.90
2973;DHT22;1496;51.404;7.232;2023-05-10T13:40:21;17.10;99.90
2973;DHT22;1496;51.404;7.232;2023-05-10T13:42:50;17.00;99.90
2973;DHT22;1496;51.404;7.232;2023-05-10T13:45:17;16.80;99.90
2973;DHT22;1496;51.404;7.232;2023-05-10T13:47:43;16.60;99.90
2973;DHT22;1496;51.404;7.232;2023-05-10T13:50:10;16.60;99.90
2973;DHT22;1496;51.404;7.232;2023-05-10T13:52:46;16.50;99.90
2973;DHT22;1496;51.404;7.232;2023-05-10T13:55:13;16.80;99.90
2973;DHT22;1496;51.404;7.232;2023-05-10T13:57:40;16.90;99.90
2973;DHT22;1496;51.404;7.232;2023-05-10T14:00:10;17.00;99.90
2973;DHT22;1496;51.404;7.232;2023-05-10T14:02:36;17.10;99.90
2973;DHT22;1496;51.404;7.232;2023-05-10T14:05:04;17.00;81.40
2973;DHT22;1496;51.404;7.232;2023-05-10T14:07:30;17.00;67.80
2973;DHT22;1496;51.404;7.232;2023-05-10T14:09:58;17.10;79.80
2973;DHT22;1496;51.404;7.232;2023-05-10T14:12:24;17.10;58.50
2973;DHT22;1496;51.404;7.232;2023-05-10T14:14:52;17.00;57.50
2973;DHT22;1496;51.404;7.232;2023-05-10T14:17:18;17.00;80.60
2973;DHT22;1496;51.404;7.232;2023-05-10T14:19:46;17.10;79.80
2973;DHT22;1496;51.404;7.232;2023-05-10T14:22:12;17.00;85.50
2973;DHT22;1496;51.404;7.232;2023-05-10T14:24:43;16.70;66.50
2973;DHT22;1496;51.404;7.232;2023-05-10T14:27:12;16.80;64.70
2973;DHT22;1496;51.404;7.232;2023-05-10T14:29:41;16.90;55.90
2973;DHT22;1496;51.404;7.232;2023-05-10T14:32:10;17.10;59.50
2973;DHT22;1496;51.404;7.232;2023-05-10T14:34:36;17.50;78.00
2973;DHT22;1496;51.404;7.232;2023-05-10T14:37:04;17.60;81.60
2973;DHT22;1496;51.404;7.232;2023-05-10T14:39:31;17.60;60.90
2973;DHT22;1496;51.404;7.232;2023-05-10T14:41:59;17.60;59.20
2973;DHT22;1496;51.404;7.232;2023-05-10T14:44:54;17.70;66.70
2973;DHT22;1496;51.404;7.232;2023-05-10T14:47:23;17.60;56.50
2973;DHT22;1496;51.404;7.232;2023-05-10T14:49:50;17.40;50.90
2973;DHT22;1496;51.404;7.232;2023-05-10T14:52:21;17.20;54.60
2973;DHT22;1496;51.404;7.232;2023-05-10T14:55:09;17.20;69.20
2973;DHT22;1496;51.404;7.232;2023-05-10T14:57:38;17.20;60.10
2973;DHT22;1496;51.404;7.232;2023-05-10T15:00:08;17.30;55.40
2973;DHT22;1496;51.404;7.232;2023-05-10T15:02:36;17.40;61.90
2973;DHT22;1496;51.404;7.232;2023-05-10T15:05:03;17.30;58.40
2973;DHT22;1496;51.404;7.232;2023-05-10T15:07:31;17.20;53.60
2973;DHT22;1496;51.404;7.232;2023-05-10T15:10:01;16.90;51.90
2973;DHT22;1496;51.404;7.232;2023-05-10T15:12:28;16.80;58.40
2973;DHT22;1496;51.404;7.232;2023-05-10T15:14:54;16.80;59.80
2973;DHT22;1496;51.404;7.232;2023-05-10T15:17:22;16.70;62.20
2973;DHT22;1496;51.404;7.232;2023-05-10T15:19:49;16.70;49.20
2973;DHT22;1496;51.404;7.232;2023-05-10T15:22:19;16.80;60.80
2973;DHT22;1496;51.404;7.232;2023-05-10T15:24:46;17.00;59.90
2973;DHT22;1496;51.404;7.232;2023-05-10T15:27:13;17.00;56.80
2973;DHT22;1496;51.404;7.232;2023-05-10T15:29:39;17.10;76.20
2973;DHT22;1496;51.404;7.232;2023-05-10T15:32:11;17.20;75.70
2973;DHT22;1496;51.404;7.232;2023-05-10T15:34:40;17.40;94.40
2973;DHT22;1496;51.404;7.232;2023-05-10T15:37:07;17.40;88.10
2973;DHT22;1496;51.404;7.232;2023-05-10T15:39:34;17.20;95.00
2973;DHT22;1496;51.404;7.232;2023-05-10T15:42:00;16.90;83.90
2973;DHT22;1496;51.404;7.232;2023-05-10T15:44:28;17.00;99.90
2973;DHT22;1496;51.404;7.232;2023-05-10T15:46:54;16.80;97.90
2973;DHT22;1496;51.404;7.232;2023-05-10T15:49:21;16.80;99.90
2973;DHT22;1496;51.404;7.232;2023-05-10T15:51:48;16.70;99.90
2973;DHT22;1496;51.404;7.232;2023-05-10T15:54:15;16.70;99.90
2973;DHT22;1496;51.404;7.232;2023-05-10T15:56:45;16.60;99.90
2973;DHT22;1496;51.404;7.232;2023-05-10T15:59:13;16.60;99.90
2973;DHT22;1496;51.404;7.232;2023-05-10T16:01:42;16.50;99.90
2973;DHT22;1496;51.404;7.232;2023-05-10T16:04:11;16.40;99.90
2973;DHT22;1496;51.404;7.232;2023-05-10T16:06:40;16.40;99.90
2973;DHT22;1496;51.404;7.232;2023-05-10T16:09:07;16.30;99.90
2973;DHT22;1496;51.404;7.232;2023-05-10T16:11:35;16.40;99.90
2973;DHT22;1496;51.404;7.232;2023-05-10T16:14:03;16.40;99.90
2973;DHT22;1496;51.404;7.232;2023-05-10T16:16:29;16.40;96.90
2973;DHT22;1496;51.404;7.232;2023-05-10T16:18:57;16.30;97.40
2973;DHT22;1496;51.404;7.232;2023-05-10T16:21:27;16.40;95.90
2973;DHT22;1496;51.404;7.232;2023-05-10T16:23:55;16.50;99.90
2973;DHT22;1496;51.404;7.232;2023-05-10T16:26:23;16.70;99.90
2973;DHT22;1496;51.404;7.232;2023-05-10T16:28:50;16.80;82.40
2973;DHT22;1496;51.404;7.232;2023-05-10T16:31:17;17.00;89.70
2973;DHT22;1496;51.404;7.232;2023-05-10T16:33:46;17.20;84.30
2973;DHT22;1496;51.404;7.232;2023-05-10T16:36:15;17.20;76.10
2973;DHT22;1496;51.404;7.232;2023-05-10T16:38:44;17.10;82.80
2973;DHT22;1496;51.404;7.232;2023-05-10T16:41:11;17.10;97.40
2973;DHT22;1496;51.404;7.232;2023-05-10T16:51:20;16.80;99.90
2973;DHT22;1496;51.404;7.232;2023-05-10T16:53:59;16.90;99.90
2973;DHT22;1496;51.404;7.232;2023-05-10T16:56:28;16.70;94.20
2973;DHT22;1496;51.404;7.232;2023-05-10T16:58:54;16.60;96.70
2973;DHT22;1496;51.404;7.232;2023-05-10T17:01:22;16.30;95.40
2973;DHT22;1496;51.404;7.232;2023-05-10T17:03:48;16.20;95.60